aviador You're here:

LTAY Decoded Metar

DENIZLI in TURKEY
Report Time2018-06-23 23:50:00
UTC Time2018-06-24 00:56:40
Flight Rules vfr VFR
WindVRB at 01 kt
Visibility9999 m
Phenomena:N/A
Clouds:N/A
Expected CloudBase > 800 ft AGL from Temp-Dew spread
CeilingNone
Temp15°C (ISA +6)
Dew Point13°C (88% RH)
QNH1014 hPa
Density Alt3,612 ft
Elevation2,785 ft
Report Wrong Elevation
Raw Report
METAR LTAY 232350Z VRB01KT CAVOK 15/13 Q1014=

Extra information for LTAY:More info

Metar Taf Metar & Taf Last 4 Metars F.Rules Stats Wind Profile Meteogram Temp Stats Airport Information Weather charts Add Link Nearby VenuesMetar ALERT Operation Metar Decoded Social comments